Time;durP1;ratioP1;P1;durP2;ratioP2;P2;SDS_P1;SDS_P2;PMS_P1;PMS_P2;Temp;Humidity;BMP_temperature;BMP_pressure;BME280_temperature;BME280_humidity;BME280_pressure;Samples;Min_cycle;Max_cycle;Signal;HPM_P1;HPM_P2
2022/07/22 00:00:27;;;;;;;5.03;3.20;;;;;;;;;;5027764;28;20747;-59
2022/07/22 00:02:53;;;;;;;3.77;3.07;;;;;;;;;;5026025;28;20173;-59
2022/07/22 00:05:20;;;;;;;5.53;3.30;;;;;;;;;;5025759;28;20178;-58
2022/07/22 00:07:46;;;;;;;5.17;2.93;;;;;;;;;;5013035;28;20253;-59
2022/07/22 00:10:12;;;;;;;5.70;4.20;;;;;;;;;;5022957;28;20273;-59
2022/07/22 00:12:39;;;;;;;4.77;2.90;;;;;;;;;;5007740;28;20190;-59
2022/07/22 00:15:06;;;;;;;4.03;2.93;;;;;;;;;;5028351;28;20266;-59
2022/07/22 00:17:32;;;;;;;6.03;4.37;;;;;;;;;;5025245;28;20233;-59
2022/07/22 00:19:58;;;;;;;4.63;3.17;;;;;;;;;;5030603;28;20844;-59
2022/07/22 00:22:24;;;;;;;4.03;3.17;;;;;;;;;;5024660;28;20974;-59
2022/07/22 00:24:50;;;;;;;4.40;2.90;;;;;;;;;;5029642;28;20181;-59
2022/07/22 00:27:16;;;;;;;5.47;3.07;;;;;;;;;;5026171;28;20174;-59
2022/07/22 00:29:42;;;;;;;5.37;3.07;;;;;;;;;;5026945;28;20172;-59
2022/07/22 00:32:09;;;;;;;6.73;3.40;;;;;;;;;;5026448;28;20182;-59
2022/07/22 00:34:35;;;;;;;4.20;3.20;;;;;;;;;;5027103;28;20397;-58
2022/07/22 00:37:01;;;;;;;6.40;3.20;;;;;;;;;;5025306;28;20268;-59
2022/07/22 00:39:27;;;;;;;6.60;3.37;;;;;;;;;;5008440;28;20210;-59
2022/07/22 00:41:53;;;;;;;3.87;3.10;;;;;;;;;;5026035;28;20200;-59
2022/07/22 00:44:19;;;;;;;7.10;3.37;;;;;;;;;;5027357;28;20178;-59
2022/07/22 00:46:45;;;;;;;5.20;3.20;;;;;;;;;;5021495;28;20641;-58
2022/07/22 00:49:11;;;;;;;5.00;3.03;;;;;;;;;;4994748;28;20239;-59
2022/07/22 00:51:40;;;;;;;4.47;2.93;;;;;;;;;;4994151;28;20187;-59
2022/07/22 00:54:07;;;;;;;4.47;3.00;;;;;;;;;;4988235;28;20205;-59
2022/07/22 00:56:33;;;;;;;4.33;3.13;;;;;;;;;;5001143;28;20245;-58
2022/07/22 00:59:01;;;;;;;6.73;3.53;;;;;;;;;;4994934;28;20551;-59
2022/07/22 01:01:27;;;;;;;4.27;3.30;;;;;;;;;;5002503;28;20172;-60
2022/07/22 01:03:53;;;;;;;5.17;2.80;;;;;;;;;;5007298;28;20327;-59
2022/07/22 01:06:19;;;;;;;5.47;3.15;;;;;;;;;;5003286;28;20774;-59
2022/07/22 01:08:45;;;;;;;4.43;3.00;;;;;;;;;;4987623;28;20194;-58
2022/07/22 01:11:16;;;;;;;4.63;2.90;;;;;;;;;;4994535;28;20448;-60
2022/07/22 01:13:42;;;;;;;5.50;3.07;;;;;;;;;;5002420;28;20547;-60
2022/07/22 01:16:09;;;;;;;4.90;3.03;;;;;;;;;;4986027;28;20190;-58
2022/07/22 01:18:36;;;;;;;6.90;3.00;;;;;;;;;;5004122;28;20175;-60
2022/07/22 01:21:02;;;;;;;8.90;3.33;;;;;;;;;;4987207;28;20207;-60
2022/07/22 01:23:29;;;;;;;4.03;2.90;;;;;;;;;;4986002;28;20187;-59
2022/07/22 01:25:55;;;;;;;5.70;3.40;;;;;;;;;;5000065;28;20190;-60
2022/07/22 01:28:21;;;;;;;4.50;3.33;;;;;;;;;;4991461;28;20179;-59
2022/07/22 01:30:49;;;;;;;3.43;3.10;;;;;;;;;;5006129;28;20255;-59
2022/07/22 01:33:15;;;;;;;3.70;2.90;;;;;;;;;;4991424;28;20175;-58
2022/07/22 01:35:41;;;;;;;3.37;2.67;;;;;;;;;;5007876;28;20707;-58
2022/07/22 01:38:07;;;;;;;3.20;2.90;;;;;;;;;;4994961;28;20196;-58
2022/07/22 01:40:34;;;;;;;7.37;3.23;;;;;;;;;;5003895;28;20202;-59
2022/07/22 01:43:00;;;;;;;5.43;3.20;;;;;;;;;;5009157;28;20771;-60
2022/07/22 01:45:26;;;;;;;3.87;3.00;;;;;;;;;;4992218;28;20198;-59
2022/07/22 01:47:52;;;;;;;3.40;2.93;;;;;;;;;;5009606;28;20178;-59
2022/07/22 01:50:18;;;;;;;4.00;2.70;;;;;;;;;;5028282;28;20185;-59
2022/07/22 01:52:44;;;;;;;3.70;3.10;;;;;;;;;;5029401;28;20223;-58
2022/07/22 01:55:12;;;;;;;3.90;2.70;;;;;;;;;;5030403;28;20170;-60
2022/07/22 01:57:40;;;;;;;3.27;3.00;;;;;;;;;;5015996;28;20205;-59
2022/07/22 02:00:08;;;;;;;3.70;3.00;;;;;;;;;;5001773;28;20233;-59
2022/07/22 02:02:34;;;;;;;3.53;2.60;;;;;;;;;;5011110;28;20170;-58
2022/07/22 02:05:00;;;;;;;5.60;3.60;;;;;;;;;;5029759;28;20209;-59
2022/07/22 02:07:26;;;;;;;2.77;2.53;;;;;;;;;;4999145;28;20187;-60
2022/07/22 02:09:53;;;;;;;9.20;4.27;;;;;;;;;;5027533;28;20182;-60
2022/07/22 02:12:19;;;;;;;4.63;3.07;;;;;;;;;;5000726;28;20185;-58
2022/07/22 02:14:46;;;;;;;3.47;3.17;;;;;;;;;;5009564;28;20523;-59
2022/07/22 02:17:12;;;;;;;3.40;3.10;;;;;;;;;;5009831;28;20191;-59
2022/07/22 02:19:38;;;;;;;5.10;3.00;;;;;;;;;;5013948;28;20700;-59
2022/07/22 02:22:05;;;;;;;5.50;2.90;;;;;;;;;;5031022;28;20185;-59
2022/07/22 02:24:31;;;;;;;8.17;3.73;;;;;;;;;;5029776;28;20181;-60
2022/07/22 02:26:57;;;;;;;2.83;2.63;;;;;;;;;;5027512;28;20178;-59
2022/07/22 02:29:23;;;;;;;5.47;2.80;;;;;;;;;;5028455;28;20186;-60
2022/07/22 02:31:49;;;;;;;2.83;2.63;;;;;;;;;;5026553;28;20186;-58
2022/07/22 02:34:15;;;;;;;4.57;3.00;;;;;;;;;;5023989;28;20259;-59
2022/07/22 02:36:41;;;;;;;3.00;2.63;;;;;;;;;;5028144;28;20177;-58
2022/07/22 02:39:07;;;;;;;3.93;3.10;;;;;;;;;;5018391;28;20178;-60
2022/07/22 02:41:34;;;;;;;2.80;2.50;;;;;;;;;;5023987;28;20182;-59
2022/07/22 02:44:00;;;;;;;3.43;2.73;;;;;;;;;;5025029;28;20185;-59
2022/07/22 02:46:28;;;;;;;3.13;2.83;;;;;;;;;;5009106;28;20604;-60
2022/07/22 02:48:55;;;;;;;3.00;2.70;;;;;;;;;;5025826;28;20241;-60
2022/07/22 02:51:21;;;;;;;3.00;2.80;;;;;;;;;;5025851;28;20216;-58
2022/07/22 02:53:47;;;;;;;2.83;2.63;;;;;;;;;;5022641;28;20181;-59
2022/07/22 02:56:13;;;;;;;4.40;2.77;;;;;;;;;;5024636;28;20637;-59
2022/07/22 02:58:46;;;;;;;3.97;2.97;;;;;;;;;;5022720;28;20193;-58
2022/07/22 03:01:12;;;;;;;6.27;5.63;;;;;;;;;;5025593;28;20717;-58
2022/07/22 03:03:39;;;;;;;3.30;2.90;;;;;;;;;;5029166;28;20177;-60
2022/07/22 03:06:05;;;;;;;2.97;2.53;;;;;;;;;;5023908;28;20520;-60
2022/07/22 03:08:31;;;;;;;3.10;2.80;;;;;;;;;;5018659;28;20309;-59
2022/07/22 03:10:57;;;;;;;3.87;2.57;;;;;;;;;;5026593;28;20693;-59
2022/07/22 03:13:23;;;;;;;4.27;2.67;;;;;;;;;;5024610;28;20182;-60
2022/07/22 03:15:49;;;;;;;5.63;2.50;;;;;;;;;;5029748;28;20182;-59
2022/07/22 03:18:15;;;;;;;5.33;4.97;;;;;;;;;;5009982;28;20190;-58
2022/07/22 03:20:41;;;;;;;3.50;2.70;;;;;;;;;;5028539;28;20306;-59
2022/07/22 03:23:07;;;;;;;2.90;2.70;;;;;;;;;;5010712;28;20178;-59
2022/07/22 03:25:34;;;;;;;3.30;3.00;;;;;;;;;;5040501;28;20624;-60
2022/07/22 03:28:00;;;;;;;3.03;2.73;;;;;;;;;;5025420;28;20182;-58
2022/07/22 03:30:26;;;;;;;3.13;2.83;;;;;;;;;;5028491;28;20192;-59
2022/07/22 03:32:58;;;;;;;3.17;2.70;;;;;;;;;;5025541;28;20709;-59
2022/07/22 03:35:25;;;;;;;2.90;2.70;;;;;;;;;;5026929;28;20201;-59
2022/07/22 03:37:51;;;;;;;3.03;2.80;;;;;;;;;;5012074;28;20641;-58
2022/07/22 03:40:17;;;;;;;5.07;4.67;;;;;;;;;;5007963;28;20672;-59
2022/07/22 03:42:43;;;;;;;3.07;2.87;;;;;;;;;;5022665;28;20177;-59
2022/07/22 03:45:10;;;;;;;3.07;2.87;;;;;;;;;;5011965;28;20242;-59
2022/07/22 03:47:36;;;;;;;2.90;2.60;;;;;;;;;;5027673;28;20181;-58
2022/07/22 03:50:03;;;;;;;2.70;2.50;;;;;;;;;;5028720;28;20237;-59
2022/07/22 03:52:29;;;;;;;3.20;2.60;;;;;;;;;;5025321;28;20265;-60
2022/07/22 03:54:55;;;;;;;3.00;2.60;;;;;;;;;;5030228;28;20607;-58
2022/07/22 03:57:21;;;;;;;2.87;2.60;;;;;;;;;;5030331;28;20240;-59
2022/07/22 03:59:48;;;;;;;5.00;3.20;;;;;;;;;;5028240;28;20190;-60
2022/07/22 04:02:14;;;;;;;5.47;4.83;;;;;;;;;;5026023;28;20178;-59
2022/07/22 04:04:43;;;;;;;2.70;2.50;;;;;;;;;;5028710;28;20587;-60
2022/07/22 04:07:09;;;;;;;3.57;3.37;;;;;;;;;;5024493;28;20591;-59
2022/07/22 04:09:35;;;;;;;2.97;2.77;;;;;;;;;;5023819;28;20648;-59
2022/07/22 04:12:01;;;;;;;2.70;2.50;;;;;;;;;;5017894;28;20641;-59
2022/07/22 04:14:27;;;;;;;2.73;2.50;;;;;;;;;;5026878;28;20181;-59
2022/07/22 04:16:53;;;;;;;3.50;2.93;;;;;;;;;;5019747;28;20186;-59
2022/07/22 04:19:19;;;;;;;2.37;2.13;;;;;;;;;;5020519;28;20205;-59
2022/07/22 04:21:45;;;;;;;2.60;2.40;;;;;;;;;;5023169;28;20180;-60
2022/07/22 04:24:16;;;;;;;2.60;2.40;;;;;;;;;;5025505;28;20189;-59
2022/07/22 04:26:43;;;;;;;3.37;2.63;;;;;;;;;;5002994;28;20178;-60
2022/07/22 04:29:09;;;;;;;3.20;3.00;;;;;;;;;;5023501;28;20178;-60
2022/07/22 04:31:36;;;;;;;3.47;2.40;;;;;;;;;;5012270;28;20430;-61
2022/07/22 04:34:02;;;;;;;2.57;2.20;;;;;;;;;;5026883;28;20182;-60
2022/07/22 04:36:28;;;;;;;2.47;2.27;;;;;;;;;;5011382;28;20175;-61
2022/07/22 04:38:55;;;;;;;2.50;2.30;;;;;;;;;;5023055;28;20529;-61
2022/07/22 04:41:21;;;;;;;2.70;2.50;;;;;;;;;;5025541;28;20186;-61
2022/07/22 04:43:48;;;;;;;2.63;2.43;;;;;;;;;;5009563;28;20273;-61
2022/07/22 04:46:14;;;;;;;4.53;4.23;;;;;;;;;;5007031;28;20178;-61
2022/07/22 04:48:40;;;;;;;2.83;2.63;;;;;;;;;;5004788;28;20222;-62
2022/07/22 04:51:09;;;;;;;3.10;2.80;;;;;;;;;;5004691;28;20630;-59
2022/07/22 04:53:35;;;;;;;2.57;2.37;;;;;;;;;;5005941;28;20179;-60
2022/07/22 04:56:01;;;;;;;2.87;2.50;;;;;;;;;;5010634;28;20181;-59
2022/07/22 04:58:28;;;;;;;3.30;3.10;;;;;;;;;;4982959;28;20178;-61
2022/07/22 05:00:54;;;;;;;5.10;4.70;;;;;;;;;;5007179;28;20241;-60
2022/07/22 05:03:25;;;;;;;2.70;2.50;;;;;;;;;;5001829;28;20187;-61
2022/07/22 05:05:51;;;;;;;3.30;2.70;;;;;;;;;;5009862;28;20665;-60
2022/07/22 05:08:18;;;;;;;3.10;2.80;;;;;;;;;;4993235;28;20194;-61
2022/07/22 05:10:44;;;;;;;2.70;2.20;;;;;;;;;;5011101;28;20671;-61
2022/07/22 05:13:12;;;;;;;2.97;2.50;;;;;;;;;;5008513;28;20178;-60
2022/07/22 05:15:38;;;;;;;2.90;2.30;;;;;;;;;;5008761;28;20267;-61
2022/07/22 05:18:04;;;;;;;2.67;2.33;;;;;;;;;;5008658;28;20716;-61
2022/07/22 05:20:31;;;;;;;2.40;2.20;;;;;;;;;;4980644;28;20226;-61
2022/07/22 05:22:58;;;;;;;2.20;2.10;;;;;;;;;;4998308;28;20710;-61
2022/07/22 05:25:24;;;;;;;2.30;2.10;;;;;;;;;;5010921;28;20206;-60
2022/07/22 05:27:51;;;;;;;3.57;2.30;;;;;;;;;;4998362;28;20641;-61
2022/07/22 05:30:17;;;;;;;3.00;2.60;;;;;;;;;;5010705;28;20190;-61
2022/07/22 05:32:43;;;;;;;2.60;2.40;;;;;;;;;;5006124;28;20650;-61
2022/07/22 05:35:12;;;;;;;5.07;2.40;;;;;;;;;;5010654;28;20593;-62
2022/07/22 05:37:38;;;;;;;2.60;2.40;;;;;;;;;;5003338;28;20375;-61
2022/07/22 05:40:04;;;;;;;3.73;2.27;;;;;;;;;;5010772;28;20269;-61
2022/07/22 05:42:31;;;;;;;2.73;2.40;;;;;;;;;;5005874;28;20174;-61
2022/07/22 05:44:57;;;;;;;2.63;2.30;;;;;;;;;;5011326;28;20175;-61
2022/07/22 05:47:23;;;;;;;3.40;2.40;;;;;;;;;;5011083;28;20428;-60
2022/07/22 05:49:49;;;;;;;2.97;2.67;;;;;;;;;;5025895;28;20253;-61
2022/07/22 05:52:15;;;;;;;2.63;2.33;;;;;;;;;;5019659;28;20198;-60
2022/07/22 05:54:41;;;;;;;3.50;2.60;;;;;;;;;;5026592;28;20683;-59
2022/07/22 05:57:09;;;;;;;2.30;2.10;;;;;;;;;;5030560;28;20205;-60
2022/07/22 05:59:35;;;;;;;2.30;2.10;;;;;;;;;;5029734;28;20264;-59
2022/07/22 06:02:01;;;;;;;3.10;2.20;;;;;;;;;;5024547;28;20244;-60
2022/07/22 06:04:27;;;;;;;7.70;3.40;;;;;;;;;;5028855;28;20218;-56
2022/07/22 06:06:53;;;;;;;4.83;2.67;;;;;;;;;;5017803;28;20185;-56
2022/07/22 06:09:20;;;;;;;6.27;3.27;;;;;;;;;;5027409;28;20174;-57
2022/07/22 06:11:46;;;;;;;5.73;3.00;;;;;;;;;;5012315;28;20545;-56
2022/07/22 06:14:12;;;;;;;3.63;3.13;;;;;;;;;;5028209;28;20594;-56
2022/07/22 06:16:38;;;;;;;4.77;3.10;;;;;;;;;;5023092;28;20191;-56
2022/07/22 06:19:04;;;;;;;3.90;3.23;;;;;;;;;;5010052;28;20605;-56
2022/07/22 06:21:30;;;;;;;3.50;2.63;;;;;;;;;;5027597;28;20652;-56
2022/07/22 06:23:57;;;;;;;6.00;3.07;;;;;;;;;;5027015;28;20186;-56
2022/07/22 06:26:23;;;;;;;4.30;2.50;;;;;;;;;;5024648;28;20189;-55
2022/07/22 06:28:49;;;;;;;3.43;2.83;;;;;;;;;;5024710;28;20558;-55
2022/07/22 06:31:16;;;;;;;8.47;2.87;;;;;;;;;;5021794;28;20178;-56
2022/07/22 06:33:42;;;;;;;5.43;3.00;;;;;;;;;;5027580;28;20189;-55
2022/07/22 06:36:08;;;;;;;6.37;2.83;;;;;;;;;;5026647;28;20182;-55
2022/07/22 06:38:34;;;;;;;4.67;3.03;;;;;;;;;;5023799;28;20185;-54
2022/07/22 06:41:00;;;;;;;10.93;3.47;;;;;;;;;;5027132;28;20745;-56
2022/07/22 06:43:29;;;;;;;5.23;3.17;;;;;;;;;;5027032;28;20652;-56
2022/07/22 06:45:56;;;;;;;9.33;3.30;;;;;;;;;;5026815;28;20216;-55
2022/07/22 06:48:22;;;;;;;4.33;3.80;;;;;;;;;;5021842;28;20181;-55
2022/07/22 06:50:48;;;;;;;3.80;3.47;;;;;;;;;;5009699;28;20478;-56
2022/07/22 06:53:14;;;;;;;6.30;3.33;;;;;;;;;;5000948;28;20186;-56
2022/07/22 06:55:40;;;;;;;5.97;3.10;;;;;;;;;;5001611;28;20189;-56
2022/07/22 06:58:06;;;;;;;4.43;3.00;;;;;;;;;;4997840;28;20293;-56
2022/07/22 07:00:33;;;;;;;6.63;3.00;;;;;;;;;;5008130;28;20206;-56
2022/07/22 07:02:59;;;;;;;4.70;3.13;;;;;;;;;;5005949;28;20206;-56
2022/07/22 07:05:27;;;;;;;7.03;3.33;;;;;;;;;;5008786;28;20181;-56
2022/07/22 07:07:53;;;;;;;6.63;3.27;;;;;;;;;;4998555;28;20178;-56
2022/07/22 07:10:19;;;;;;;7.57;3.67;;;;;;;;;;5007133;28;20665;-55
2022/07/22 07:12:45;;;;;;;6.93;3.50;;;;;;;;;;4988920;28;20592;-56
2022/07/22 07:15:12;;;;;;;5.53;3.40;;;;;;;;;;5007186;28;20731;-55
2022/07/22 07:17:38;;;;;;;5.97;3.80;;;;;;;;;;5005544;28;20421;-55
2022/07/22 07:20:05;;;;;;;5.87;3.50;;;;;;;;;;5005432;28;20802;-55
2022/07/22 07:22:32;;;;;;;4.90;3.40;;;;;;;;;;5002303;28;20723;-55
2022/07/22 07:25:01;;;;;;;4.33;3.87;;;;;;;;;;5008454;28;20179;-56
2022/07/22 07:27:27;;;;;;;8.13;3.60;;;;;;;;;;5006797;28;20543;-55
2022/07/22 07:29:53;;;;;;;8.33;3.73;;;;;;;;;;4990803;28;20201;-56
2022/07/22 07:32:20;;;;;;;8.27;3.90;;;;;;;;;;4995814;28;20584;-56
2022/07/22 07:34:48;;;;;;;5.90;3.80;;;;;;;;;;5006681;28;20543;-56
2022/07/22 07:37:15;;;;;;;5.67;3.73;;;;;;;;;;5007248;28;20265;-56
2022/07/22 07:39:41;;;;;;;4.30;3.90;;;;;;;;;;5007133;28;20210;-57
2022/07/22 07:42:07;;;;;;;10.03;4.87;;;;;;;;;;5002045;28;20256;-56
2022/07/22 07:44:33;;;;;;;7.33;3.90;;;;;;;;;;5005856;28;20175;-56
2022/07/22 07:46:59;;;;;;;9.37;4.63;;;;;;;;;;5004550;28;20297;-57
2022/07/22 07:49:25;;;;;;;5.67;4.00;;;;;;;;;;5016636;28;20323;-56
2022/07/22 07:51:51;;;;;;;7.23;4.67;;;;;;;;;;5023933;28;20759;-55
2022/07/22 07:54:17;;;;;;;8.17;4.63;;;;;;;;;;5025366;28;20264;-57
2022/07/22 07:56:44;;;;;;;8.33;3.93;;;;;;;;;;5022251;28;20170;-57
2022/07/22 07:59:10;;;;;;;5.97;4.53;;;;;;;;;;5023447;28;20182;-57
2022/07/22 08:01:36;;;;;;;4.90;3.97;;;;;;;;;;5023442;28;20166;-57
2022/07/22 08:04:02;;;;;;;5.30;3.90;;;;;;;;;;5033194;28;20166;-57
2022/07/22 08:06:28;;;;;;;7.53;4.23;;;;;;;;;;5003953;28;20169;-57
2022/07/22 08:08:54;;;;;;;7.40;4.37;;;;;;;;;;5020954;28;20701;-60
2022/07/22 08:11:20;;;;;;;4.60;3.97;;;;;;;;;;5021857;28;20198;-57
2022/07/22 08:13:46;;;;;;;6.43;3.87;;;;;;;;;;5021192;28;20178;-56
2022/07/22 08:16:12;;;;;;;5.87;3.73;;;;;;;;;;5020584;28;20182;-55
2022/07/22 08:18:41;;;;;;;5.73;3.60;;;;;;;;;;5024733;28;20245;-55
2022/07/22 08:21:07;;;;;;;7.07;4.30;;;;;;;;;;5020816;28;20753;-54
2022/07/22 08:23:34;;;;;;;6.00;3.83;;;;;;;;;;5017926;28;20633;-54
2022/07/22 08:26:00;;;;;;;8.77;5.10;;;;;;;;;;5022264;28;20170;-54
2022/07/22 08:28:32;;;;;;;4.77;4.30;;;;;;;;;;5005381;28;20256;-55
2022/07/22 08:30:58;;;;;;;5.87;4.53;;;;;;;;;;5023664;28;20633;-54
2022/07/22 08:33:24;;;;;;;6.87;4.40;;;;;;;;;;5027817;28;20181;-55
2022/07/22 08:35:51;;;;;;;7.03;4.20;;;;;;;;;;5025801;28;20656;-54
2022/07/22 08:38:17;;;;;;;7.30;4.20;;;;;;;;;;5001841;28;20178;-55
2022/07/22 08:40:43;;;;;;;8.53;4.63;;;;;;;;;;5026332;28;20197;-55
2022/07/22 08:43:09;;;;;;;4.87;4.00;;;;;;;;;;5019027;28;20177;-53
2022/07/22 08:45:35;;;;;;;9.47;4.93;;;;;;;;;;5021834;28;20208;-55
2022/07/22 08:48:03;;;;;;;6.07;4.50;;;;;;;;;;5019876;28;20388;-54
2022/07/22 08:50:30;;;;;;;5.90;4.50;;;;;;;;;;5003115;28;20314;-55
2022/07/22 08:52:57;;;;;;;8.18;5.10;;;;;;;;;;5016053;28;20464;-55
2022/07/22 08:55:23;;;;;;;5.80;4.20;;;;;;;;;;5021020;28;20184;-55
2022/07/22 08:57:50;;;;;;;5.70;5.17;;;;;;;;;;5018313;28;20178;-55
2022/07/22 09:00:18;;;;;;;6.73;3.57;;;;;;;;;;5023310;28;20209;-55
2022/07/22 09:02:45;;;;;;;6.40;3.77;;;;;;;;;;5016384;28;20173;-54
2022/07/22 09:05:13;;;;;;;4.57;4.10;;;;;;;;;;4998639;28;20232;-55
2022/07/22 09:07:41;;;;;;;5.70;4.43;;;;;;;;;;5025889;28;20216;-57
2022/07/22 09:10:09;;;;;;;6.20;4.00;;;;;;;;;;5021748;28;20595;-58
2022/07/22 09:12:35;;;;;;;5.20;4.40;;;;;;;;;;5006658;28;20175;-57
2022/07/22 09:15:02;;;;;;;6.90;4.13;;;;;;;;;;5026874;28;20181;-55
2022/07/22 09:17:35;;;;;;;4.73;4.00;;;;;;;;;;5020950;28;20830;-58
2022/07/22 09:20:04;;;;;;;6.47;5.03;;;;;;;;;;5024508;28;20210;-58
2022/07/22 09:22:31;;;;;;;6.57;4.47;;;;;;;;;;5022549;28;20195;-57
2022/07/22 09:24:57;;;;;;;5.27;4.70;;;;;;;;;;5004843;28;20175;-58
2022/07/22 09:27:24;;;;;;;5.37;4.60;;;;;;;;;;5017201;28;20191;-58
2022/07/22 09:29:52;;;;;;;7.63;6.93;;;;;;;;;;5038940;28;20184;-57
2022/07/22 09:32:18;;;;;;;7.37;5.97;;;;;;;;;;5023038;28;20534;-58
2022/07/22 09:34:51;;;;;;;6.63;5.97;;;;;;;;;;5043233;28;20180;-57
2022/07/22 09:37:18;;;;;;;7.13;5.47;;;;;;;;;;5027275;28;20171;-58
2022/07/22 09:39:44;;;;;;;8.00;6.07;;;;;;;;;;5003989;28;20440;-58
2022/07/22 09:42:10;;;;;;;13.60;8.57;;;;;;;;;;5022918;28;20174;-58
2022/07/22 09:44:36;;;;;;;10.73;8.43;;;;;;;;;;5040794;28;20174;-58
2022/07/22 09:47:02;;;;;;;9.03;8.13;;;;;;;;;;5009312;28;20229;-58
2022/07/22 09:49:37;;;;;;;10.33;8.23;;;;;;;;;;5031681;28;20232;-59
2022/07/22 09:52:03;;;;;;;9.93;8.13;;;;;;;;;;5021400;28;20191;-58
2022/07/22 09:54:30;;;;;;;15.87;10.30;;;;;;;;;;5024288;28;20638;-58
2022/07/22 09:56:56;;;;;;;9.80;8.40;;;;;;;;;;5023795;28;20310;-58
2022/07/22 09:59:22;;;;;;;9.07;8.17;;;;;;;;;;5029546;28;20190;-58
2022/07/22 10:01:50;;;;;;;9.00;8.10;;;;;;;;;;5024044;28;20181;-59
2022/07/22 10:04:20;;;;;;;10.93;9.67;;;;;;;;;;5031719;28;20253;-58
2022/07/22 10:06:48;;;;;;;12.37;9.77;;;;;;;;;;5028543;28;20581;-59
2022/07/22 10:09:15;;;;;;;9.90;8.67;;;;;;;;;;5008779;28;20886;-57
2022/07/22 10:11:45;;;;;;;11.73;8.27;;;;;;;;;;5024207;28;20186;-59
2022/07/22 10:14:14;;;;;;;10.10;9.10;;;;;;;;;;5015151;28;20497;-58
2022/07/22 10:16:41;;;;;;;13.00;10.03;;;;;;;;;;5007505;28;20229;-58
2022/07/22 10:19:08;;;;;;;9.77;8.40;;;;;;;;;;5023823;28;20174;-58
2022/07/22 10:21:34;;;;;;;8.87;7.97;;;;;;;;;;5025691;28;20202;-59
2022/07/22 10:24:08;;;;;;;11.73;8.80;;;;;;;;;;5027518;28;20212;-59
2022/07/22 10:26:48;;;;;;;11.43;9.73;;;;;;;;;;5011232;28;20178;-59
2022/07/22 10:29:26;;;;;;;10.90;8.40;;;;;;;;;;5028815;28;20529;-59
2022/07/22 10:32:13;;;;;;;10.53;9.37;;;;;;;;;;5022934;28;20181;-59
2022/07/22 10:34:39;;;;;;;10.40;8.93;;;;;;;;;;5010891;28;20575;-59
2022/07/22 10:37:25;;;;;;;10.63;8.53;;;;;;;;;;5009301;28;20212;-59
2022/07/22 10:40:11;;;;;;;10.47;8.37;;;;;;;;;;5026004;28;20205;-60
2022/07/22 10:42:55;;;;;;;15.03;9.17;;;;;;;;;;5026988;28;20178;-59
2022/07/22 10:45:21;;;;;;;10.07;8.27;;;;;;;;;;5029288;28;20170;-58
2022/07/22 10:48:01;;;;;;;8.33;7.53;;;;;;;;;;5023855;28;20260;-60
2022/07/22 10:50:37;;;;;;;9.53;8.53;;;;;;;;;;5016170;28;20310;-59
2022/07/22 10:53:08;;;;;;;9.53;8.40;;;;;;;;;;4989554;28;20185;-59
2022/07/22 10:55:35;;;;;;;10.73;9.03;;;;;;;;;;5009886;28;20258;-59
2022/07/22 10:58:21;;;;;;;13.50;8.97;;;;;;;;;;5005730;28;20595;-60
2022/07/22 11:00:48;;;;;;;10.47;9.37;;;;;;;;;;5005411;28;20696;-59
2022/07/22 11:03:24;;;;;;;9.17;8.07;;;;;;;;;;5005824;28;20202;-59
2022/07/22 11:05:50;;;;;;;12.60;8.27;;;;;;;;;;5005523;28;20248;-59
2022/07/22 11:08:18;;;;;;;10.40;9.30;;;;;;;;;;5000540;28;20210;-59
2022/07/22 11:10:51;;;;;;;10.60;8.23;;;;;;;;;;4980652;28;20179;-61
2022/07/22 11:13:33;;;;;;;8.77;7.97;;;;;;;;;;4979644;28;20207;-60
2022/07/22 11:16:15;;;;;;;9.30;8.40;;;;;;;;;;5006698;28;20181;-59
2022/07/22 11:18:46;;;;;;;10.00;7.93;;;;;;;;;;4980257;28;20194;-59
2022/07/22 11:21:14;;;;;;;10.63;9.03;;;;;;;;;;5018056;28;20620;-59
2022/07/22 11:23:41;;;;;;;9.33;8.47;;;;;;;;;;4977688;28;20182;-59
2022/07/22 11:26:09;;;;;;;9.27;8.37;;;;;;;;;;4987616;28;20178;-58
2022/07/22 11:28:41;;;;;;;8.67;7.87;;;;;;;;;;5029093;28;20170;-60
2022/07/22 11:31:08;;;;;;;9.07;7.30;;;;;;;;;;5025352;28;20245;-58
2022/07/22 11:33:34;;;;;;;9.10;8.20;;;;;;;;;;5005982;28;20273;-59
2022/07/22 11:36:10;;;;;;;8.73;7.83;;;;;;;;;;4991157;28;20183;-59
2022/07/22 11:38:42;;;;;;;9.80;8.03;;;;;;;;;;4988482;28;20903;-58
2022/07/22 11:41:08;;;;;;;10.10;9.03;;;;;;;;;;4979374;28;20252;-58
2022/07/22 11:43:41;;;;;;;9.50;8.60;;;;;;;;;;5003255;28;20363;-60
2022/07/22 11:46:07;;;;;;;8.37;7.60;;;;;;;;;;4989525;28;20174;-58
2022/07/22 11:48:34;;;;;;;9.33;7.97;;;;;;;;;;4988140;28;20793;-59
2022/07/22 11:51:01;;;;;;;10.13;7.97;;;;;;;;;;5027187;28;20649;-58
2022/07/22 11:53:27;;;;;;;8.87;8.07;;;;;;;;;;5007142;28;20183;-60
2022/07/22 11:55:57;;;;;;;8.70;7.83;;;;;;;;;;5018927;28;20664;-58
2022/07/22 11:58:34;;;;;;;8.87;7.93;;;;;;;;;;5039038;28;20189;-60
2022/07/22 12:01:00;;;;;;;11.87;8.80;;;;;;;;;;5025089;28;20201;-58
2022/07/22 12:03:27;;;;;;;9.97;8.17;;;;;;;;;;5009973;28;20294;-60
2022/07/22 12:05:53;;;;;;;10.93;9.90;;;;;;;;;;5029532;28;20182;-59
2022/07/22 12:08:20;;;;;;;9.60;8.70;;;;;;;;;;5009855;28;20662;-60
2022/07/22 12:10:47;;;;;;;8.60;7.80;;;;;;;;;;4997187;28;20189;-59
2022/07/22 12:13:13;;;;;;;9.77;8.80;;;;;;;;;;5010775;28;20182;-59
2022/07/22 12:15:40;;;;;;;9.03;8.20;;;;;;;;;;4995548;28;20173;-59
2022/07/22 12:18:17;;;;;;;8.97;8.13;;;;;;;;;;5009143;28;20653;-59
2022/07/22 12:20:48;;;;;;;9.00;8.17;;;;;;;;;;5025874;28;20216;-58
2022/07/22 12:23:14;;;;;;;12.30;11.13;;;;;;;;;;5005196;28;20613;-58
2022/07/22 12:26:00;;;;;;;8.30;7.60;;;;;;;;;;5045624;28;20208;-58
2022/07/22 12:28:27;;;;;;;10.20;8.10;;;;;;;;;;5008746;28;20684;-58
2022/07/22 12:30:54;;;;;;;10.53;8.00;;;;;;;;;;5010222;28;20213;-58
2022/07/22 12:33:21;;;;;;;8.50;7.80;;;;;;;;;;5027551;28;20542;-58
2022/07/22 12:36:04;;;;;;;9.45;8.55;;;;;;;;;;5037781;28;20423;-58
2022/07/22 12:38:31;;;;;;;8.17;7.47;;;;;;;;;;5042257;28;20531;-58
2022/07/22 12:40:57;;;;;;;8.60;7.80;;;;;;;;;;5045563;28;20197;-59
2022/07/22 12:43:29;;;;;;;8.97;7.70;;;;;;;;;;5026957;28;20660;-59
2022/07/22 12:46:03;;;;;;;9.53;8.73;;;;;;;;;;5027381;28;20180;-59
2022/07/22 12:48:29;;;;;;;9.00;8.03;;;;;;;;;;4990363;28;20179;-58
2022/07/22 12:50:59;;;;;;;8.33;7.63;;;;;;;;;;4991005;28;20230;-59
2022/07/22 12:53:29;;;;;;;8.97;8.07;;;;;;;;;;5038507;28;20595;-59
2022/07/22 12:56:00;;;;;;;10.67;8.10;;;;;;;;;;5039086;28;20457;-59
2022/07/22 12:58:27;;;;;;;9.17;7.73;;;;;;;;;;5025441;28;20189;-58
2022/07/22 13:00:54;;;;;;;10.13;9.07;;;;;;;;;;5009959;28;20197;-59
2022/07/22 13:03:27;;;;;;;8.13;7.43;;;;;;;;;;5023307;28;20185;-59
2022/07/22 13:05:58;;;;;;;8.50;7.80;;;;;;;;;;5029796;28;20214;-59
2022/07/22 13:08:25;;;;;;;8.83;8.13;;;;;;;;;;5026640;28;20659;-58
2022/07/22 13:10:52;;;;;;;8.57;7.77;;;;;;;;;;5030136;28;20736;-58
2022/07/22 13:13:19;;;;;;;8.50;7.67;;;;;;;;;;5043849;28;20245;-58
2022/07/22 13:15:48;;;;;;;7.80;7.07;;;;;;;;;;5044009;28;20180;-57
2022/07/22 13:18:14;;;;;;;8.23;7.43;;;;;;;;;;4994030;28;20218;-58
2022/07/22 13:20:40;;;;;;;10.63;8.37;;;;;;;;;;5020461;28;20212;-59
2022/07/22 13:23:07;;;;;;;8.23;7.40;;;;;;;;;;5038415;28;20222;-58
2022/07/22 13:25:33;;;;;;;7.93;7.23;;;;;;;;;;5049342;28;20192;-59
2022/07/22 13:27:59;;;;;;;8.50;7.70;;;;;;;;;;5030918;28;20175;-57
2022/07/22 13:30:25;;;;;;;8.07;7.40;;;;;;;;;;5031733;28;20169;-58
2022/07/22 13:32:52;;;;;;;8.03;6.63;;;;;;;;;;5019797;28;20660;-58
2022/07/22 13:35:18;;;;;;;7.93;6.97;;;;;;;;;;5043368;28;20539;-58
2022/07/22 13:37:47;;;;;;;6.93;6.27;;;;;;;;;;5043189;28;20171;-59
2022/07/22 13:40:14;;;;;;;7.60;6.90;;;;;;;;;;5048897;28;20204;-58
2022/07/22 13:42:40;;;;;;;6.97;6.37;;;;;;;;;;5017403;28;20549;-58
2022/07/22 13:45:09;;;;;;;6.83;6.33;;;;;;;;;;5037629;28;20184;-58
2022/07/22 13:47:36;;;;;;;7.60;6.80;;;;;;;;;;5022412;28;20540;-58
2022/07/22 13:50:02;;;;;;;6.97;6.37;;;;;;;;;;5045858;28;20231;-57
2022/07/22 13:52:28;;;;;;;7.63;6.73;;;;;;;;;;5012055;28;20180;-58
2022/07/22 13:54:55;;;;;;;6.90;6.20;;;;;;;;;;5013791;28;20220;-58
2022/07/22 13:57:21;;;;;;;8.37;7.47;;;;;;;;;;5011719;28;20268;-58
2022/07/22 13:59:48;;;;;;;14.47;13.37;;;;;;;;;;5013140;28;20738;-58
2022/07/22 14:02:14;;;;;;;10.57;9.87;;;;;;;;;;5025909;28;20267;-58
2022/07/22 14:04:50;;;;;;;7.27;6.67;;;;;;;;;;5049585;28;20179;-58
2022/07/22 14:07:17;;;;;;;6.47;5.87;;;;;;;;;;5043222;28;20198;-57
2022/07/22 14:09:43;;;;;;;8.73;7.20;;;;;;;;;;5048356;28;20206;-59
2022/07/22 14:12:09;;;;;;;8.10;7.30;;;;;;;;;;5023004;28;20220;-58
2022/07/22 14:14:35;;;;;;;7.50;6.90;;;;;;;;;;5050442;28;20179;-58
2022/07/22 14:17:01;;;;;;;7.73;7.00;;;;;;;;;;5040027;28;20671;-58
2022/07/22 14:19:27;;;;;;;7.27;6.67;;;;;;;;;;5032441;28;20733;-58
2022/07/22 14:21:57;;;;;;;8.30;7.50;;;;;;;;;;5018796;28;20193;-58
2022/07/22 14:24:24;;;;;;;8.27;7.47;;;;;;;;;;5019801;28;20172;-57
2022/07/22 14:26:51;;;;;;;9.70;7.73;;;;;;;;;;5019820;28;20192;-58
2022/07/22 14:29:17;;;;;;;8.37;6.90;;;;;;;;;;5017748;28;20632;-58
2022/07/22 14:31:44;;;;;;;9.17;8.37;;;;;;;;;;5021952;28;20213;-58
2022/07/22 14:34:10;;;;;;;8.10;7.40;;;;;;;;;;5047130;28;20183;-59
2022/07/22 14:36:36;;;;;;;8.67;7.97;;;;;;;;;;5029091;28;20566;-56
2022/07/22 14:39:02;;;;;;;8.87;8.17;;;;;;;;;;5026918;28;20571;-59
2022/07/22 14:41:28;;;;;;;10.30;9.50;;;;;;;;;;5039181;28;20684;-59